sensor_id;sensor_type;location;lat;lon;timestamp;temperature;humidity
2625;DHT22;1322;53.256;10.386;2023-02-07T00:00:42;0.10;99.90
2625;DHT22;1322;53.256;10.386;2023-02-07T00:03:08;0.10;99.90
2625;DHT22;1322;53.256;10.386;2023-02-07T00:05:33;0.00;99.90
2625;DHT22;1322;53.256;10.386;2023-02-07T00:08:04;0.00;99.90
2625;DHT22;1322;53.256;10.386;2023-02-07T00:10:30;0.10;99.90
2625;DHT22;1322;53.256;10.386;2023-02-07T00:12:56;0.20;99.90
2625;DHT22;1322;53.256;10.386;2023-02-07T00:15:22;0.20;99.90
2625;DHT22;1322;53.256;10.386;2023-02-07T00:17:48;0.20;99.90
2625;DHT22;1322;53.256;10.386;2023-02-07T00:20:14;0.30;99.90
2625;DHT22;1322;53.256;10.386;2023-02-07T00:22:42;0.30;99.90
2625;DHT22;1322;53.256;10.386;2023-02-07T00:25:08;0.40;99.90
2625;DHT22;1322;53.256;10.386;2023-02-07T00:27:33;0.40;99.90
2625;DHT22;1322;53.256;10.386;2023-02-07T00:29:59;0.40;99.90
2625;DHT22;1322;53.256;10.386;2023-02-07T00:32:24;0.40;99.90
2625;DHT22;1322;53.256;10.386;2023-02-07T00:34:50;0.60;99.90
2625;DHT22;1322;53.256;10.386;2023-02-07T00:37:16;0.50;99.90
2625;DHT22;1322;53.256;10.386;2023-02-07T00:39:42;0.50;99.90
2625;DHT22;1322;53.256;10.386;2023-02-07T00:42:07;0.50;99.90
2625;DHT22;1322;53.256;10.386;2023-02-07T00:44:33;0.50;99.90
2625;DHT22;1322;53.256;10.386;2023-02-07T00:46:59;0.50;99.90
2625;DHT22;1322;53.256;10.386;2023-02-07T00:49:24;0.50;99.90
2625;DHT22;1322;53.256;10.386;2023-02-07T00:51:50;0.50;99.90
2625;DHT22;1322;53.256;10.386;2023-02-07T00:54:16;0.50;99.90
2625;DHT22;1322;53.256;10.386;2023-02-07T00:56:44;0.50;99.90
2625;DHT22;1322;53.256;10.386;2023-02-07T00:59:10;0.50;99.90
2625;DHT22;1322;53.256;10.386;2023-02-07T01:01:36;0.60;99.90
2625;DHT22;1322;53.256;10.386;2023-02-07T01:04:01;0.70;99.90
2625;DHT22;1322;53.256;10.386;2023-02-07T01:06:27;0.50;99.90
2625;DHT22;1322;53.256;10.386;2023-02-07T01:08:58;0.40;99.90
2625;DHT22;1322;53.256;10.386;2023-02-07T01:11:25;0.30;99.90
2625;DHT22;1322;53.256;10.386;2023-02-07T01:13:51;0.10;99.90
2625;DHT22;1322;53.256;10.386;2023-02-07T01:16:25;0.10;99.90
2625;DHT22;1322;53.256;10.386;2023-02-07T01:18:51;0.10;99.90
2625;DHT22;1322;53.256;10.386;2023-02-07T01:21:19;0.00;99.90
2625;DHT22;1322;53.256;10.386;2023-02-07T01:23:46;0.00;99.90
2625;DHT22;1322;53.256;10.386;2023-02-07T01:26:12;0.00;99.90
2625;DHT22;1322;53.256;10.386;2023-02-07T01:28:38;0.00;99.90
2625;DHT22;1322;53.256;10.386;2023-02-07T01:31:08;0.00;99.90
2625;DHT22;1322;53.256;10.386;2023-02-07T01:33:35;0.00;99.90
2625;DHT22;1322;53.256;10.386;2023-02-07T01:36:08;0.10;99.90
2625;DHT22;1322;53.256;10.386;2023-02-07T01:38:34;0.20;99.90
2625;DHT22;1322;53.256;10.386;2023-02-07T01:41:00;0.20;99.90
2625;DHT22;1322;53.256;10.386;2023-02-07T01:43:26;0.20;99.90
2625;DHT22;1322;53.256;10.386;2023-02-07T01:45:52;0.20;99.90
2625;DHT22;1322;53.256;10.386;2023-02-07T01:48:25;0.20;99.90
2625;DHT22;1322;53.256;10.386;2023-02-07T01:50:54;0.20;99.90
2625;DHT22;1322;53.256;10.386;2023-02-07T01:53:23;0.20;99.90
2625;DHT22;1322;53.256;10.386;2023-02-07T01:55:51;0.20;99.90
2625;DHT22;1322;53.256;10.386;2023-02-07T01:58:19;0.20;99.90
2625;DHT22;1322;53.256;10.386;2023-02-07T02:00:45;0.20;99.90
2625;DHT22;1322;53.256;10.386;2023-02-07T02:03:12;0.20;99.90
2625;DHT22;1322;53.256;10.386;2023-02-07T02:05:38;0.20;99.90
2625;DHT22;1322;53.256;10.386;2023-02-07T02:08:04;0.20;99.90
2625;DHT22;1322;53.256;10.386;2023-02-07T02:16:29;0.20;99.90
2625;DHT22;1322;53.256;10.386;2023-02-07T02:28:19;0.20;99.90
2625;DHT22;1322;53.256;10.386;2023-02-07T02:33:56;0.20;99.90
2625;DHT22;1322;53.256;10.386;2023-02-07T02:36:39;0.20;99.90
2625;DHT22;1322;53.256;10.386;2023-02-07T02:45:11;0.10;99.90
2625;DHT22;1322;53.256;10.386;2023-02-07T02:47:41;0.00;99.90
2625;DHT22;1322;53.256;10.386;2023-02-07T02:50:14;0.00;99.90
2625;DHT22;1322;53.256;10.386;2023-02-07T02:52:42;0.00;99.90
2625;DHT22;1322;53.256;10.386;2023-02-07T02:55:08;0.00;99.90
2625;DHT22;1322;53.256;10.386;2023-02-07T02:57:59;0.00;99.90
2625;DHT22;1322;53.256;10.386;2023-02-07T03:03:33;0.00;99.90
2625;DHT22;1322;53.256;10.386;2023-02-07T03:06:05;0.00;99.90
2625;DHT22;1322;53.256;10.386;2023-02-07T03:09:04;-0.10;99.90
2625;DHT22;1322;53.256;10.386;2023-02-07T03:11:38;-0.10;99.90
2625;DHT22;1322;53.256;10.386;2023-02-07T03:14:33;-0.20;99.90
2625;DHT22;1322;53.256;10.386;2023-02-07T03:17:17;-0.20;99.90
2625;DHT22;1322;53.256;10.386;2023-02-07T03:20:08;-0.20;99.90
2625;DHT22;1322;53.256;10.386;2023-02-07T03:22:37;-0.20;99.90
2625;DHT22;1322;53.256;10.386;2023-02-07T03:25:04;-0.30;99.90
2625;DHT22;1322;53.256;10.386;2023-02-07T03:27:33;-0.30;99.90
2625;DHT22;1322;53.256;10.386;2023-02-07T03:30:05;-0.20;99.90
2625;DHT22;1322;53.256;10.386;2023-02-07T03:32:44;-0.20;99.90
2625;DHT22;1322;53.256;10.386;2023-02-07T03:35:24;-0.30;99.90
2625;DHT22;1322;53.256;10.386;2023-02-07T03:37:53;-0.20;99.90
2625;DHT22;1322;53.256;10.386;2023-02-07T03:40:19;-0.20;99.90
2625;DHT22;1322;53.256;10.386;2023-02-07T03:42:57;-0.20;99.90
2625;DHT22;1322;53.256;10.386;2023-02-07T03:45:24;-0.20;99.90
2625;DHT22;1322;53.256;10.386;2023-02-07T03:47:50;-0.20;99.90
2625;DHT22;1322;53.256;10.386;2023-02-07T03:50:16;-0.20;99.90
2625;DHT22;1322;53.256;10.386;2023-02-07T03:52:42;-0.20;99.90
2625;DHT22;1322;53.256;10.386;2023-02-07T03:55:08;-0.20;99.90
2625;DHT22;1322;53.256;10.386;2023-02-07T03:57:34;-0.20;99.90
2625;DHT22;1322;53.256;10.386;2023-02-07T04:00:00;-0.10;99.90
2625;DHT22;1322;53.256;10.386;2023-02-07T04:02:26;-0.10;99.90
2625;DHT22;1322;53.256;10.386;2023-02-07T04:04:51;0.00;99.90
2625;DHT22;1322;53.256;10.386;2023-02-07T04:07:17;0.00;99.90
2625;DHT22;1322;53.256;10.386;2023-02-07T04:09:42;0.00;99.90
2625;DHT22;1322;53.256;10.386;2023-02-07T04:12:08;0.00;99.90
2625;DHT22;1322;53.256;10.386;2023-02-07T04:14:34;0.00;99.90
2625;DHT22;1322;53.256;10.386;2023-02-07T04:16:59;0.10;99.90
2625;DHT22;1322;53.256;10.386;2023-02-07T04:19:25;0.20;99.90
2625;DHT22;1322;53.256;10.386;2023-02-07T04:21:51;0.10;99.90
2625;DHT22;1322;53.256;10.386;2023-02-07T04:24:16;0.10;99.90
2625;DHT22;1322;53.256;10.386;2023-02-07T04:26:42;0.10;99.90
2625;DHT22;1322;53.256;10.386;2023-02-07T04:29:08;0.20;99.90
2625;DHT22;1322;53.256;10.386;2023-02-07T04:31:34;0.10;99.90
2625;DHT22;1322;53.256;10.386;2023-02-07T04:34:02;0.00;99.90
2625;DHT22;1322;53.256;10.386;2023-02-07T04:36:28;0.00;99.90
2625;DHT22;1322;53.256;10.386;2023-02-07T04:38:54;0.10;99.90
2625;DHT22;1322;53.256;10.386;2023-02-07T04:41:20;0.10;99.90
2625;DHT22;1322;53.256;10.386;2023-02-07T04:43:45;0.20;99.90
2625;DHT22;1322;53.256;10.386;2023-02-07T04:46:11;0.20;99.90
2625;DHT22;1322;53.256;10.386;2023-02-07T04:48:37;0.20;99.90
2625;DHT22;1322;53.256;10.386;2023-02-07T04:51:03;0.30;99.90
2625;DHT22;1322;53.256;10.386;2023-02-07T04:53:29;0.30;99.90
2625;DHT22;1322;53.256;10.386;2023-02-07T04:55:54;0.30;99.90
2625;DHT22;1322;53.256;10.386;2023-02-07T04:58:21;0.30;99.90
2625;DHT22;1322;53.256;10.386;2023-02-07T05:00:47;0.30;99.90
2625;DHT22;1322;53.256;10.386;2023-02-07T05:03:13;0.30;99.90
2625;DHT22;1322;53.256;10.386;2023-02-07T05:05:40;0.30;99.90
2625;DHT22;1322;53.256;10.386;2023-02-07T05:08:05;0.30;99.90
2625;DHT22;1322;53.256;10.386;2023-02-07T05:10:31;0.30;99.90
2625;DHT22;1322;53.256;10.386;2023-02-07T05:12:57;0.30;99.90
2625;DHT22;1322;53.256;10.386;2023-02-07T05:15:23;0.20;99.90
2625;DHT22;1322;53.256;10.386;2023-02-07T05:17:49;0.10;99.90
2625;DHT22;1322;53.256;10.386;2023-02-07T05:20:17;0.10;99.90
2625;DHT22;1322;53.256;10.386;2023-02-07T05:22:42;-0.10;99.90
2625;DHT22;1322;53.256;10.386;2023-02-07T05:25:08;-0.10;99.90
2625;DHT22;1322;53.256;10.386;2023-02-07T05:27:34;0.00;99.90
2625;DHT22;1322;53.256;10.386;2023-02-07T05:29:59;0.00;99.90
2625;DHT22;1322;53.256;10.386;2023-02-07T05:32:25;0.00;99.90
2625;DHT22;1322;53.256;10.386;2023-02-07T05:35:09;0.10;99.90
2625;DHT22;1322;53.256;10.386;2023-02-07T05:37:35;0.10;99.90
2625;DHT22;1322;53.256;10.386;2023-02-07T05:40:00;0.10;99.90
2625;DHT22;1322;53.256;10.386;2023-02-07T05:42:26;0.20;99.90
2625;DHT22;1322;53.256;10.386;2023-02-07T05:44:51;0.20;99.90
2625;DHT22;1322;53.256;10.386;2023-02-07T05:47:17;0.30;99.90
2625;DHT22;1322;53.256;10.386;2023-02-07T05:49:43;0.30;99.90
2625;DHT22;1322;53.256;10.386;2023-02-07T05:52:08;0.30;99.90
2625;DHT22;1322;53.256;10.386;2023-02-07T05:54:34;0.30;99.90
2625;DHT22;1322;53.256;10.386;2023-02-07T05:57:00;0.30;99.90
2625;DHT22;1322;53.256;10.386;2023-02-07T05:59:25;0.30;99.90
2625;DHT22;1322;53.256;10.386;2023-02-07T06:01:51;0.40;99.90
2625;DHT22;1322;53.256;10.386;2023-02-07T06:04:16;0.40;99.90
2625;DHT22;1322;53.256;10.386;2023-02-07T06:06:42;0.30;99.90
2625;DHT22;1322;53.256;10.386;2023-02-07T06:09:08;0.30;99.90
2625;DHT22;1322;53.256;10.386;2023-02-07T06:11:33;0.30;99.90
2625;DHT22;1322;53.256;10.386;2023-02-07T06:13:59;0.30;99.90
2625;DHT22;1322;53.256;10.386;2023-02-07T06:16:25;0.30;99.90
2625;DHT22;1322;53.256;10.386;2023-02-07T06:18:50;0.30;99.90
2625;DHT22;1322;53.256;10.386;2023-02-07T06:21:16;0.40;99.90
2625;DHT22;1322;53.256;10.386;2023-02-07T06:23:41;0.40;99.90
2625;DHT22;1322;53.256;10.386;2023-02-07T06:26:07;0.50;99.90
2625;DHT22;1322;53.256;10.386;2023-02-07T06:28:33;0.50;99.90
2625;DHT22;1322;53.256;10.386;2023-02-07T06:30:58;0.50;99.90
2625;DHT22;1322;53.256;10.386;2023-02-07T06:33:24;0.60;99.90
2625;DHT22;1322;53.256;10.386;2023-02-07T06:35:50;0.60;99.90
2625;DHT22;1322;53.256;10.386;2023-02-07T06:38:16;0.60;99.90
2625;DHT22;1322;53.256;10.386;2023-02-07T06:40:43;0.70;99.90
2625;DHT22;1322;53.256;10.386;2023-02-07T06:43:09;0.70;99.90
2625;DHT22;1322;53.256;10.386;2023-02-07T06:45:35;0.60;99.90
2625;DHT22;1322;53.256;10.386;2023-02-07T06:48:01;0.60;99.90
2625;DHT22;1322;53.256;10.386;2023-02-07T06:50:26;0.60;99.90
2625;DHT22;1322;53.256;10.386;2023-02-07T06:52:52;0.60;99.90
2625;DHT22;1322;53.256;10.386;2023-02-07T06:55:18;0.60;99.90
2625;DHT22;1322;53.256;10.386;2023-02-07T06:57:43;0.60;99.90
2625;DHT22;1322;53.256;10.386;2023-02-07T07:00:09;0.70;99.90
2625;DHT22;1322;53.256;10.386;2023-02-07T07:02:35;0.70;99.90
2625;DHT22;1322;53.256;10.386;2023-02-07T07:05:01;0.80;99.90
2625;DHT22;1322;53.256;10.386;2023-02-07T07:07:28;0.80;99.90
2625;DHT22;1322;53.256;10.386;2023-02-07T07:09:55;0.90;99.90
2625;DHT22;1322;53.256;10.386;2023-02-07T07:12:20;0.80;99.90
2625;DHT22;1322;53.256;10.386;2023-02-07T07:14:46;0.80;99.90
2625;DHT22;1322;53.256;10.386;2023-02-07T07:17:13;0.80;99.90
2625;DHT22;1322;53.256;10.386;2023-02-07T07:19:39;0.90;99.90
2625;DHT22;1322;53.256;10.386;2023-02-07T07:22:05;0.90;99.90
2625;DHT22;1322;53.256;10.386;2023-02-07T07:24:32;0.90;99.90
2625;DHT22;1322;53.256;10.386;2023-02-07T07:26:58;0.90;99.90
2625;DHT22;1322;53.256;10.386;2023-02-07T07:29:23;0.80;99.90
2625;DHT22;1322;53.256;10.386;2023-02-07T07:31:49;0.90;99.90
2625;DHT22;1322;53.256;10.386;2023-02-07T07:34:15;0.90;99.90
2625;DHT22;1322;53.256;10.386;2023-02-07T07:36:40;1.00;99.90
2625;DHT22;1322;53.256;10.386;2023-02-07T07:39:06;1.10;99.90
2625;DHT22;1322;53.256;10.386;2023-02-07T07:41:33;1.00;99.90
2625;DHT22;1322;53.256;10.386;2023-02-07T07:43:59;1.00;99.90
2625;DHT22;1322;53.256;10.386;2023-02-07T07:46:24;1.00;99.90
2625;DHT22;1322;53.256;10.386;2023-02-07T07:48:50;1.00;99.90
2625;DHT22;1322;53.256;10.386;2023-02-07T07:51:15;1.00;99.90
2625;DHT22;1322;53.256;10.386;2023-02-07T07:53:41;1.10;99.90
2625;DHT22;1322;53.256;10.386;2023-02-07T07:56:07;1.10;99.90
2625;DHT22;1322;53.256;10.386;2023-02-07T07:58:32;1.20;99.90
2625;DHT22;1322;53.256;10.386;2023-02-07T08:00:58;1.20;99.90
2625;DHT22;1322;53.256;10.386;2023-02-07T08:03:24;1.20;99.90
2625;DHT22;1322;53.256;10.386;2023-02-07T08:05:49;1.30;99.90
2625;DHT22;1322;53.256;10.386;2023-02-07T08:08:16;1.30;99.90
2625;DHT22;1322;53.256;10.386;2023-02-07T08:10:44;1.40;99.90
2625;DHT22;1322;53.256;10.386;2023-02-07T08:13:10;1.50;99.90
2625;DHT22;1322;53.256;10.386;2023-02-07T08:15:36;1.60;99.90
2625;DHT22;1322;53.256;10.386;2023-02-07T08:18:02;1.80;99.90
2625;DHT22;1322;53.256;10.386;2023-02-07T08:20:28;1.80;99.90
2625;DHT22;1322;53.256;10.386;2023-02-07T08:22:54;1.70;99.90
2625;DHT22;1322;53.256;10.386;2023-02-07T08:25:19;1.60;99.90
2625;DHT22;1322;53.256;10.386;2023-02-07T08:27:45;1.60;99.90
2625;DHT22;1322;53.256;10.386;2023-02-07T08:30:12;1.70;99.90
2625;DHT22;1322;53.256;10.386;2023-02-07T08:32:39;1.70;99.90
2625;DHT22;1322;53.256;10.386;2023-02-07T08:35:05;1.70;99.90
2625;DHT22;1322;53.256;10.386;2023-02-07T08:37:31;1.60;99.90
2625;DHT22;1322;53.256;10.386;2023-02-07T08:39:57;1.70;99.90
2625;DHT22;1322;53.256;10.386;2023-02-07T08:42:23;1.80;99.90
2625;DHT22;1322;53.256;10.386;2023-02-07T08:44:49;1.80;99.90
2625;DHT22;1322;53.256;10.386;2023-02-07T08:47:15;1.80;99.90
2625;DHT22;1322;53.256;10.386;2023-02-07T08:49:43;1.70;99.90
2625;DHT22;1322;53.256;10.386;2023-02-07T08:52:10;1.50;99.90
2625;DHT22;1322;53.256;10.386;2023-02-07T08:54:36;1.50;99.90
2625;DHT22;1322;53.256;10.386;2023-02-07T08:57:02;1.50;99.90
2625;DHT22;1322;53.256;10.386;2023-02-07T08:59:27;1.60;99.90
2625;DHT22;1322;53.256;10.386;2023-02-07T09:01:54;1.60;99.90
2625;DHT22;1322;53.256;10.386;2023-02-07T09:04:19;1.70;99.90
2625;DHT22;1322;53.256;10.386;2023-02-07T09:06:45;1.90;99.90
2625;DHT22;1322;53.256;10.386;2023-02-07T09:09:11;2.00;99.90
2625;DHT22;1322;53.256;10.386;2023-02-07T09:11:37;2.00;99.90
2625;DHT22;1322;53.256;10.386;2023-02-07T09:14:02;2.20;99.90
2625;DHT22;1322;53.256;10.386;2023-02-07T09:16:28;2.20;99.90
2625;DHT22;1322;53.256;10.386;2023-02-07T09:18:54;2.40;99.90
2625;DHT22;1322;53.256;10.386;2023-02-07T09:21:21;2.60;99.90
2625;DHT22;1322;53.256;10.386;2023-02-07T09:23:46;2.80;99.90
2625;DHT22;1322;53.256;10.386;2023-02-07T09:26:22;2.70;99.90
2625;DHT22;1322;53.256;10.386;2023-02-07T09:28:50;2.90;99.90
2625;DHT22;1322;53.256;10.386;2023-02-07T09:31:17;3.00;99.90
2625;DHT22;1322;53.256;10.386;2023-02-07T09:33:43;3.10;99.90
2625;DHT22;1322;53.256;10.386;2023-02-07T09:36:27;3.10;99.90
2625;DHT22;1322;53.256;10.386;2023-02-07T09:38:53;3.20;99.90
2625;DHT22;1322;53.256;10.386;2023-02-07T09:47:02;3.40;99.90
2625;DHT22;1322;53.256;10.386;2023-02-07T09:52:04;3.30;99.90
2625;DHT22;1322;53.256;10.386;2023-02-07T09:54:45;3.30;99.90
2625;DHT22;1322;53.256;10.386;2023-02-07T09:59:57;2.80;99.90
2625;DHT22;1322;53.256;10.386;2023-02-07T10:05:18;2.60;99.90
2625;DHT22;1322;53.256;10.386;2023-02-07T10:07:46;2.50;99.90
2625;DHT22;1322;53.256;10.386;2023-02-07T10:15:50;2.40;99.90
2625;DHT22;1322;53.256;10.386;2023-02-07T10:21:29;2.30;99.90
2625;DHT22;1322;53.256;10.386;2023-02-07T10:24:22;2.30;99.90
2625;DHT22;1322;53.256;10.386;2023-02-07T10:27:00;2.20;99.90
2625;DHT22;1322;53.256;10.386;2023-02-07T10:32:19;2.10;99.90
2625;DHT22;1322;53.256;10.386;2023-02-07T10:34:46;2.20;99.90
2625;DHT22;1322;53.256;10.386;2023-02-07T10:37:26;2.30;99.90
2625;DHT22;1322;53.256;10.386;2023-02-07T10:40:03;2.30;99.90
2625;DHT22;1322;53.256;10.386;2023-02-07T10:42:32;2.20;99.90
2625;DHT22;1322;53.256;10.386;2023-02-07T10:45:00;2.30;99.90
2625;DHT22;1322;53.256;10.386;2023-02-07T10:47:29;2.40;99.90
2625;DHT22;1322;53.256;10.386;2023-02-07T10:49:54;2.40;99.90
2625;DHT22;1322;53.256;10.386;2023-02-07T10:54:55;2.50;99.90
2625;DHT22;1322;53.256;10.386;2023-02-07T10:57:21;2.60;99.90
2625;DHT22;1322;53.256;10.386;2023-02-07T10:59:47;2.70;99.90
2625;DHT22;1322;53.256;10.386;2023-02-07T11:02:34;2.70;99.90
2625;DHT22;1322;53.256;10.386;2023-02-07T11:08:02;2.50;99.90
2625;DHT22;1322;53.256;10.386;2023-02-07T11:12:58;2.40;99.90
2625;DHT22;1322;53.256;10.386;2023-02-07T11:15:34;2.60;99.90
2625;DHT22;1322;53.256;10.386;2023-02-07T11:18:01;2.80;99.90
2625;DHT22;1322;53.256;10.386;2023-02-07T11:20:38;2.80;99.90
2625;DHT22;1322;53.256;10.386;2023-02-07T11:23:13;2.80;99.90
2625;DHT22;1322;53.256;10.386;2023-02-07T11:25:45;2.90;99.90
2625;DHT22;1322;53.256;10.386;2023-02-07T11:28:25;3.00;99.90
2625;DHT22;1322;53.256;10.386;2023-02-07T11:30:57;3.10;99.90
2625;DHT22;1322;53.256;10.386;2023-02-07T11:33:28;3.10;99.90
2625;DHT22;1322;53.256;10.386;2023-02-07T11:38:30;3.20;99.90
2625;DHT22;1322;53.256;10.386;2023-02-07T11:41:00;3.30;99.90
2625;DHT22;1322;53.256;10.386;2023-02-07T11:43:32;3.30;99.90
2625;DHT22;1322;53.256;10.386;2023-02-07T11:46:08;3.30;99.90
2625;DHT22;1322;53.256;10.386;2023-02-07T11:48:36;3.20;99.90
2625;DHT22;1322;53.256;10.386;2023-02-07T11:51:06;3.20;99.90
2625;DHT22;1322;53.256;10.386;2023-02-07T11:53:54;3.30;99.90
2625;DHT22;1322;53.256;10.386;2023-02-07T11:56:30;3.40;99.90
2625;DHT22;1322;53.256;10.386;2023-02-07T11:58:57;3.50;99.90
2625;DHT22;1322;53.256;10.386;2023-02-07T12:01:29;3.50;99.90
2625;DHT22;1322;53.256;10.386;2023-02-07T12:03:59;3.70;99.90
2625;DHT22;1322;53.256;10.386;2023-02-07T12:06:49;3.70;99.90
2625;DHT22;1322;53.256;10.386;2023-02-07T12:09:40;3.80;99.90
2625;DHT22;1322;53.256;10.386;2023-02-07T12:14:53;3.70;99.90
2625;DHT22;1322;53.256;10.386;2023-02-07T12:17:26;3.70;99.90
2625;DHT22;1322;53.256;10.386;2023-02-07T12:20:05;3.70;99.90
2625;DHT22;1322;53.256;10.386;2023-02-07T12:22:39;3.70;99.90
2625;DHT22;1322;53.256;10.386;2023-02-07T12:25:17;3.50;99.90
2625;DHT22;1322;53.256;10.386;2023-02-07T12:27:46;3.60;99.90
2625;DHT22;1322;53.256;10.386;2023-02-07T12:30:22;3.70;99.90
2625;DHT22;1322;53.256;10.386;2023-02-07T12:32:54;3.60;99.90
2625;DHT22;1322;53.256;10.386;2023-02-07T12:35:57;3.50;99.90
2625;DHT22;1322;53.256;10.386;2023-02-07T12:41:12;3.60;99.90
2625;DHT22;1322;53.256;10.386;2023-02-07T12:47:05;3.50;99.90
2625;DHT22;1322;53.256;10.386;2023-02-07T12:52:35;3.50;99.90
2625;DHT22;1322;53.256;10.386;2023-02-07T12:55:14;3.60;99.90
2625;DHT22;1322;53.256;10.386;2023-02-07T12:58:04;3.70;99.90
2625;DHT22;1322;53.256;10.386;2023-02-07T13:00:56;3.60;99.90
2625;DHT22;1322;53.256;10.386;2023-02-07T13:09:05;3.80;99.90
2625;DHT22;1322;53.256;10.386;2023-02-07T13:14:29;4.00;99.90
2625;DHT22;1322;53.256;10.386;2023-02-07T13:22:42;4.10;99.90
2625;DHT22;1322;53.256;10.386;2023-02-07T13:25:33;4.10;99.90
2625;DHT22;1322;53.256;10.386;2023-02-07T13:28:04;3.90;99.90
2625;DHT22;1322;53.256;10.386;2023-02-07T13:30:31;3.80;99.90
2625;DHT22;1322;53.256;10.386;2023-02-07T13:33:02;3.90;99.90
2625;DHT22;1322;53.256;10.386;2023-02-07T13:35:32;3.90;99.90
2625;DHT22;1322;53.256;10.386;2023-02-07T13:38:13;4.00;99.90
2625;DHT22;1322;53.256;10.386;2023-02-07T13:41:20;4.00;99.90
2625;DHT22;1322;53.256;10.386;2023-02-07T13:52:31;4.10;99.90
2625;DHT22;1322;53.256;10.386;2023-02-07T14:00:20;3.90;99.90
2625;DHT22;1322;53.256;10.386;2023-02-07T14:02:58;3.90;99.90
2625;DHT22;1322;53.256;10.386;2023-02-07T14:05:29;3.90;99.90
2625;DHT22;1322;53.256;10.386;2023-02-07T14:07:58;3.90;99.90
2625;DHT22;1322;53.256;10.386;2023-02-07T14:10:42;4.00;99.90
2625;DHT22;1322;53.256;10.386;2023-02-07T14:13:27;4.00;99.90
2625;DHT22;1322;53.256;10.386;2023-02-07T14:16:01;4.10;99.90
2625;DHT22;1322;53.256;10.386;2023-02-07T14:29:50;3.80;99.90
2625;DHT22;1322;53.256;10.386;2023-02-07T14:35:02;4.00;99.90
2625;DHT22;1322;53.256;10.386;2023-02-07T14:37:40;4.00;99.90
2625;DHT22;1322;53.256;10.386;2023-02-07T14:40:33;4.10;99.90
2625;DHT22;1322;53.256;10.386;2023-02-07T14:43:05;4.20;99.90
2625;DHT22;1322;53.256;10.386;2023-02-07T14:45:35;4.20;99.90
2625;DHT22;1322;53.256;10.386;2023-02-07T14:48:27;4.10;99.90
2625;DHT22;1322;53.256;10.386;2023-02-07T14:50:52;4.20;99.90
2625;DHT22;1322;53.256;10.386;2023-02-07T14:53:19;4.10;99.90
2625;DHT22;1322;53.256;10.386;2023-02-07T14:55:52;4.10;99.90
2625;DHT22;1322;53.256;10.386;2023-02-07T14:58:26;4.20;99.90
2625;DHT22;1322;53.256;10.386;2023-02-07T15:00:56;4.30;99.90
2625;DHT22;1322;53.256;10.386;2023-02-07T15:03:28;4.20;99.90
2625;DHT22;1322;53.256;10.386;2023-02-07T15:05:59;4.20;99.90
2625;DHT22;1322;53.256;10.386;2023-02-07T15:08:28;4.20;99.90
2625;DHT22;1322;53.256;10.386;2023-02-07T15:11:11;4.20;99.90
2625;DHT22;1322;53.256;10.386;2023-02-07T15:13:44;4.20;99.90
2625;DHT22;1322;53.256;10.386;2023-02-07T15:16:12;4.20;99.90
2625;DHT22;1322;53.256;10.386;2023-02-07T15:18:47;4.20;99.90
2625;DHT22;1322;53.256;10.386;2023-02-07T15:21:41;4.10;99.90
2625;DHT22;1322;53.256;10.386;2023-02-07T15:26:55;4.10;99.90
2625;DHT22;1322;53.256;10.386;2023-02-07T15:29:24;4.10;99.90
2625;DHT22;1322;53.256;10.386;2023-02-07T15:31:51;4.10;99.90
2625;DHT22;1322;53.256;10.386;2023-02-07T15:34:20;4.00;99.90
2625;DHT22;1322;53.256;10.386;2023-02-07T15:36:51;4.00;99.90
2625;DHT22;1322;53.256;10.386;2023-02-07T15:39:22;4.00;99.90
2625;DHT22;1322;53.256;10.386;2023-02-07T15:41:51;4.00;99.90
2625;DHT22;1322;53.256;10.386;2023-02-07T15:47:33;4.00;99.90
2625;DHT22;1322;53.256;10.386;2023-02-07T15:50:04;4.00;99.90
2625;DHT22;1322;53.256;10.386;2023-02-07T15:52:34;3.90;99.90
2625;DHT22;1322;53.256;10.386;2023-02-07T15:55:04;3.90;99.90
2625;DHT22;1322;53.256;10.386;2023-02-07T15:57:42;3.90;99.90
2625;DHT22;1322;53.256;10.386;2023-02-07T16:00:30;3.80;99.90
2625;DHT22;1322;53.256;10.386;2023-02-07T16:03:04;3.80;99.90
2625;DHT22;1322;53.256;10.386;2023-02-07T16:05:32;3.70;99.90
2625;DHT22;1322;53.256;10.386;2023-02-07T16:08:01;3.70;99.90
2625;DHT22;1322;53.256;10.386;2023-02-07T16:10:33;3.70;99.90
2625;DHT22;1322;53.256;10.386;2023-02-07T16:15:37;3.60;99.90
2625;DHT22;1322;53.256;10.386;2023-02-07T16:18:04;3.50;99.90
2625;DHT22;1322;53.256;10.386;2023-02-07T16:20:33;3.40;99.90
2625;DHT22;1322;53.256;10.386;2023-02-07T16:23:02;3.40;99.90
2625;DHT22;1322;53.256;10.386;2023-02-07T16:25:33;3.40;99.90
2625;DHT22;1322;53.256;10.386;2023-02-07T16:27:59;3.30;99.90
2625;DHT22;1322;53.256;10.386;2023-02-07T16:30:36;3.20;99.90
2625;DHT22;1322;53.256;10.386;2023-02-07T16:33:07;3.30;99.90
2625;DHT22;1322;53.256;10.386;2023-02-07T16:35:35;3.30;99.90
2625;DHT22;1322;53.256;10.386;2023-02-07T16:38:01;3.20;99.90
2625;DHT22;1322;53.256;10.386;2023-02-07T16:40:27;3.20;99.90
2625;DHT22;1322;53.256;10.386;2023-02-07T16:42:54;3.20;99.90
2625;DHT22;1322;53.256;10.386;2023-02-07T16:45:23;3.20;99.90
2625;DHT22;1322;53.256;10.386;2023-02-07T16:47:49;3.10;99.90
2625;DHT22;1322;53.256;10.386;2023-02-07T16:50:21;3.10;99.90
2625;DHT22;1322;53.256;10.386;2023-02-07T16:52:47;3.00;99.90
2625;DHT22;1322;53.256;10.386;2023-02-07T16:55:17;2.90;99.90
2625;DHT22;1322;53.256;10.386;2023-02-07T16:57:44;2.90;99.90
2625;DHT22;1322;53.256;10.386;2023-02-07T17:00:17;2.70;99.90
2625;DHT22;1322;53.256;10.386;2023-02-07T17:02:44;2.40;99.90
2625;DHT22;1322;53.256;10.386;2023-02-07T17:05:13;2.40;99.90
2625;DHT22;1322;53.256;10.386;2023-02-07T17:07:39;2.50;99.90
2625;DHT22;1322;53.256;10.386;2023-02-07T17:10:21;2.50;99.90
2625;DHT22;1322;53.256;10.386;2023-02-07T17:12:49;2.60;99.90
2625;DHT22;1322;53.256;10.386;2023-02-07T17:15:15;2.60;99.90
2625;DHT22;1322;53.256;10.386;2023-02-07T17:17:40;2.50;99.90
2625;DHT22;1322;53.256;10.386;2023-02-07T17:20:26;2.50;99.90
2625;DHT22;1322;53.256;10.386;2023-02-07T17:22:52;2.40;99.90
2625;DHT22;1322;53.256;10.386;2023-02-07T17:25:20;2.50;99.90
2625;DHT22;1322;53.256;10.386;2023-02-07T17:27:46;2.50;99.90
2625;DHT22;1322;53.256;10.386;2023-02-07T17:30:19;2.50;99.90
2625;DHT22;1322;53.256;10.386;2023-02-07T17:32:45;2.40;99.90
2625;DHT22;1322;53.256;10.386;2023-02-07T17:35:11;2.40;99.90
2625;DHT22;1322;53.256;10.386;2023-02-07T17:37:36;2.40;99.90
2625;DHT22;1322;53.256;10.386;2023-02-07T17:40:05;2.40;99.90
2625;DHT22;1322;53.256;10.386;2023-02-07T17:42:38;2.40;99.90
2625;DHT22;1322;53.256;10.386;2023-02-07T17:45:04;2.30;99.90
2625;DHT22;1322;53.256;10.386;2023-02-07T17:47:29;2.30;99.90
2625;DHT22;1322;53.256;10.386;2023-02-07T17:49:55;2.30;99.90
2625;DHT22;1322;53.256;10.386;2023-02-07T17:52:21;2.30;99.90
2625;DHT22;1322;53.256;10.386;2023-02-07T17:54:46;2.30;99.90
2625;DHT22;1322;53.256;10.386;2023-02-07T17:57:13;2.20;99.90
2625;DHT22;1322;53.256;10.386;2023-02-07T17:59:38;2.20;99.90
2625;DHT22;1322;53.256;10.386;2023-02-07T18:02:04;2.10;99.90
2625;DHT22;1322;53.256;10.386;2023-02-07T18:04:30;2.10;99.90
2625;DHT22;1322;53.256;10.386;2023-02-07T18:06:55;2.10;99.90
2625;DHT22;1322;53.256;10.386;2023-02-07T18:09:21;2.10;99.90
2625;DHT22;1322;53.256;10.386;2023-02-07T18:11:48;2.00;99.90
2625;DHT22;1322;53.256;10.386;2023-02-07T18:14:13;2.00;99.90
2625;DHT22;1322;53.256;10.386;2023-02-07T18:16:39;2.00;99.90
2625;DHT22;1322;53.256;10.386;2023-02-07T18:19:06;2.00;99.90